sensor_id;sensor_type;location;lat;lon;timestamp;pressure;altitude;pressure_sealevel;temperature;humidity
7668;BME280;3876;42.204;24.686;2023-04-03T00:00:09;98764.03;;;12.86;62.88
7668;BME280;3876;42.204;24.686;2023-04-03T00:02:36;98761.72;;;12.82;63.34
7668;BME280;3876;42.204;24.686;2023-04-03T00:05:03;98760.88;;;12.81;64.34
7668;BME280;3876;42.204;24.686;2023-04-03T00:07:31;98758.22;;;12.83;64.10
7668;BME280;3876;42.204;24.686;2023-04-03T00:09:58;98757.41;;;12.82;64.20
7668;BME280;3876;42.204;24.686;2023-04-03T00:12:25;98759.88;;;12.84;63.56
7668;BME280;3876;42.204;24.686;2023-04-03T00:14:51;98758.22;;;12.83;63.41
7668;BME280;3876;42.204;24.686;2023-04-03T00:17:18;98756.56;;;12.82;63.44
7668;BME280;3876;42.204;24.686;2023-04-03T00:19:45;98757.56;;;12.79;63.82
7668;BME280;3876;42.204;24.686;2023-04-03T00:22:12;98751.56;;;12.79;64.22
7668;BME280;3876;42.204;24.686;2023-04-03T00:24:40;98755.03;;;12.78;63.93
7668;BME280;3876;42.204;24.686;2023-04-03T00:27:07;98756.72;;;12.79;63.73
7668;BME280;3876;42.204;24.686;2023-04-03T00:29:34;98755.94;;;12.77;63.22
7668;BME280;3876;42.204;24.686;2023-04-03T00:32:00;98756.03;;;12.75;63.28
7668;BME280;3876;42.204;24.686;2023-04-03T00:34:28;98759.59;;;12.73;63.45
7668;BME280;3876;42.204;24.686;2023-04-03T00:36:55;98758.81;;;12.71;63.73
7668;BME280;3876;42.204;24.686;2023-04-03T00:39:21;98755.50;;;12.69;63.96
7668;BME280;3876;42.204;24.686;2023-04-03T00:41:49;98748.84;;;12.64;63.98
7668;BME280;3876;42.204;24.686;2023-04-03T00:44:21;98758.28;;;12.64;63.68
7668;BME280;3876;42.204;24.686;2023-04-03T00:46:48;98759.47;;;12.57;62.80
7668;BME280;3876;42.204;24.686;2023-04-03T00:49:14;98748.81;;;12.47;63.58
7668;BME280;3876;42.204;24.686;2023-04-03T00:51:41;98717.44;;;12.24;63.68
7668;BME280;3876;42.204;24.686;2023-04-03T00:54:08;98756.38;;;12.50;63.13
7668;BME280;3876;42.204;24.686;2023-04-03T00:56:36;98751.38;;;12.47;62.95
7668;BME280;3876;42.204;24.686;2023-04-03T00:59:08;98755.09;;;12.42;63.65
7668;BME280;3876;42.204;24.686;2023-04-03T01:01:37;98750.19;;;12.37;63.73
7668;BME280;3876;42.204;24.686;2023-04-03T01:04:05;98751.06;;;12.36;63.28
7668;BME280;3876;42.204;24.686;2023-04-03T01:06:34;98750.94;;;12.39;63.84
7668;BME280;3876;42.204;24.686;2023-04-03T01:09:02;98750.59;;;12.28;63.80
7668;BME280;3876;42.204;24.686;2023-04-03T01:11:29;98759.38;;;12.24;63.38
7668;BME280;3876;42.204;24.686;2023-04-03T01:13:56;98755.84;;;12.08;63.95
7668;BME280;3876;42.204;24.686;2023-04-03T01:16:24;98759.75;;;11.98;64.64
7668;BME280;3876;42.204;24.686;2023-04-03T01:18:50;98759.88;;;11.95;65.13
7668;BME280;3876;42.204;24.686;2023-04-03T01:21:45;98758.28;;;11.92;65.50
7668;BME280;3876;42.204;24.686;2023-04-03T01:24:32;98767.31;;;11.82;65.77
7668;BME280;3876;42.204;24.686;2023-04-03T01:27:01;98761.50;;;11.79;65.79
7668;BME280;3876;42.204;24.686;2023-04-03T01:29:29;98760.09;;;11.72;66.69
7668;BME280;3876;42.204;24.686;2023-04-03T01:31:58;98765.47;;;11.66;66.34
7668;BME280;3876;42.204;24.686;2023-04-03T01:34:26;98756.69;;;11.51;67.58
7668;BME280;3876;42.204;24.686;2023-04-03T01:36:53;98772.84;;;11.34;68.35
7668;BME280;3876;42.204;24.686;2023-04-03T01:39:21;98755.50;;;11.21;69.18
7668;BME280;3876;42.204;24.686;2023-04-03T01:41:48;98749.00;;;11.12;69.54
7668;BME280;3876;42.204;24.686;2023-04-03T01:44:14;98758.31;;;11.15;69.73
7668;BME280;3876;42.204;24.686;2023-04-03T01:46:41;98758.50;;;11.10;70.03
7668;BME280;3876;42.204;24.686;2023-04-03T01:49:10;98764.66;;;11.06;69.87
7668;BME280;3876;42.204;24.686;2023-04-03T01:51:37;98767.34;;;11.03;69.76
7668;BME280;3876;42.204;24.686;2023-04-03T01:54:04;98754.06;;;10.93;70.20
7668;BME280;3876;42.204;24.686;2023-04-03T01:56:30;98766.97;;;10.92;70.30
7668;BME280;3876;42.204;24.686;2023-04-03T01:58:57;98744.25;;;10.83;70.13
7668;BME280;3876;42.204;24.686;2023-04-03T02:01:24;98767.22;;;10.86;69.99
7668;BME280;3876;42.204;24.686;2023-04-03T02:03:52;98750.56;;;10.76;70.46
7668;BME280;3876;42.204;24.686;2023-04-03T02:06:20;98763.03;;;10.83;70.80
7668;BME280;3876;42.204;24.686;2023-04-03T02:08:47;98763.97;;;10.82;70.22
7668;BME280;3876;42.204;24.686;2023-04-03T02:11:13;98745.66;;;10.70;70.65
7668;BME280;3876;42.204;24.686;2023-04-03T02:13:40;98764.72;;;10.84;71.32
7668;BME280;3876;42.204;24.686;2023-04-03T02:16:09;98763.88;;;10.84;71.29
7668;BME280;3876;42.204;24.686;2023-04-03T02:18:36;98760.31;;;10.88;70.29
7668;BME280;3876;42.204;24.686;2023-04-03T02:21:03;98771.53;;;10.85;70.11
7668;BME280;3876;42.204;24.686;2023-04-03T02:23:32;98767.22;;;10.86;70.85
7668;BME280;3876;42.204;24.686;2023-04-03T02:26:05;98764.84;;;10.81;71.04
7668;BME280;3876;42.204;24.686;2023-04-03T02:28:33;98756.44;;;10.78;71.03
7668;BME280;3876;42.204;24.686;2023-04-03T02:31:00;98759.41;;;10.69;71.34
7668;BME280;3876;42.204;24.686;2023-04-03T02:33:27;98760.72;;;10.57;72.14
7668;BME280;3876;42.204;24.686;2023-04-03T02:35:54;98753.97;;;10.54;72.31
7668;BME280;3876;42.204;24.686;2023-04-03T02:38:21;98752.19;;;10.57;72.87
7668;BME280;3876;42.204;24.686;2023-04-03T02:40:50;98754.88;;;10.53;72.82
7668;BME280;3876;42.204;24.686;2023-04-03T02:43:17;98748.94;;;10.53;72.63
7668;BME280;3876;42.204;24.686;2023-04-03T02:45:44;98752.97;;;10.59;73.10
7668;BME280;3876;42.204;24.686;2023-04-03T02:48:11;98753.69;;;10.62;73.15
7668;BME280;3876;42.204;24.686;2023-04-03T02:50:38;98752.09;;;10.60;73.27
7668;BME280;3876;42.204;24.686;2023-04-03T02:53:04;98747.00;;;10.58;73.26
7668;BME280;3876;42.204;24.686;2023-04-03T02:55:31;98749.53;;;10.60;73.84
7668;BME280;3876;42.204;24.686;2023-04-03T02:57:59;98751.28;;;10.58;74.01
7668;BME280;3876;42.204;24.686;2023-04-03T03:00:26;98749.63;;;10.57;73.94
7668;BME280;3876;42.204;24.686;2023-04-03T03:02:53;98746.41;;;10.51;74.29
7668;BME280;3876;42.204;24.686;2023-04-03T03:05:20;98750.84;;;10.48;74.26
7668;BME280;3876;42.204;24.686;2023-04-03T03:07:47;98744.88;;;10.47;74.93
7668;BME280;3876;42.204;24.686;2023-04-03T03:10:14;98734.75;;;10.44;74.43
7668;BME280;3876;42.204;24.686;2023-04-03T03:12:41;98731.41;;;10.42;75.07
7668;BME280;3876;42.204;24.686;2023-04-03T03:15:10;98731.41;;;10.42;75.59
7668;BME280;3876;42.204;24.686;2023-04-03T03:17:37;98735.75;;;10.40;75.08
7668;BME280;3876;42.204;24.686;2023-04-03T03:20:04;98718.19;;;10.31;75.43
7668;BME280;3876;42.204;24.686;2023-04-03T03:22:31;98733.19;;;10.40;75.53
7668;BME280;3876;42.204;24.686;2023-04-03T03:24:58;98725.59;;;10.39;75.81
7668;BME280;3876;42.204;24.686;2023-04-03T03:27:26;98725.63;;;10.37;75.82
7668;BME280;3876;42.204;24.686;2023-04-03T03:29:53;98722.38;;;10.34;75.49
7668;BME280;3876;42.204;24.686;2023-04-03T03:32:21;98717.34;;;10.31;76.20
7668;BME280;3876;42.204;24.686;2023-04-03T03:34:47;98719.88;;;10.32;76.06
7668;BME280;3876;42.204;24.686;2023-04-03T03:37:14;98718.56;;;10.22;76.27
7668;BME280;3876;42.204;24.686;2023-04-03T03:39:41;98734.06;;;10.19;75.99
7668;BME280;3876;42.204;24.686;2023-04-03T03:42:08;98734.25;;;10.13;76.68
7668;BME280;3876;42.204;24.686;2023-04-03T03:44:35;98732.59;;;10.12;76.99
7668;BME280;3876;42.204;24.686;2023-04-03T03:47:01;98735.16;;;10.12;76.83
7668;BME280;3876;42.204;24.686;2023-04-03T03:49:30;98730.09;;;10.11;76.61
7668;BME280;3876;42.204;24.686;2023-04-03T03:51:57;98735.28;;;10.09;76.51
7668;BME280;3876;42.204;24.686;2023-04-03T03:54:23;98750.63;;;10.09;76.43
7668;BME280;3876;42.204;24.686;2023-04-03T03:56:50;98746.50;;;10.05;76.48
7668;BME280;3876;42.204;24.686;2023-04-03T03:59:17;98750.16;;;9.99;76.35
7668;BME280;3876;42.204;24.686;2023-04-03T04:01:44;98749.38;;;9.97;76.84
7668;BME280;3876;42.204;24.686;2023-04-03T04:04:11;98757.00;;;9.99;76.60
7668;BME280;3876;42.204;24.686;2023-04-03T04:06:39;98748.72;;;9.92;77.27
7668;BME280;3876;42.204;24.686;2023-04-03T04:09:05;98755.47;;;9.95;77.18
7668;BME280;3876;42.204;24.686;2023-04-03T04:11:32;98753.84;;;9.92;77.45
7668;BME280;3876;42.204;24.686;2023-04-03T04:13:59;98763.31;;;9.90;77.51
7668;BME280;3876;42.204;24.686;2023-04-03T04:16:26;98774.31;;;9.92;77.92
7668;BME280;3876;42.204;24.686;2023-04-03T04:18:53;98781.16;;;9.92;77.60
7668;BME280;3876;42.204;24.686;2023-04-03T04:21:20;98771.16;;;9.86;77.70
7668;BME280;3876;42.204;24.686;2023-04-03T04:23:48;98785.59;;;9.88;78.15
7668;BME280;3876;42.204;24.686;2023-04-03T04:26:15;98784.75;;;9.88;78.21
7668;BME280;3876;42.204;24.686;2023-04-03T04:28:41;98789.06;;;9.86;78.13
7668;BME280;3876;42.204;24.686;2023-04-03T04:31:08;98795.09;;;9.85;78.36
7668;BME280;3876;42.204;24.686;2023-04-03T04:33:35;98793.31;;;9.87;78.84
7668;BME280;3876;42.204;24.686;2023-04-03T04:36:02;98786.38;;;9.89;79.37
7668;BME280;3876;42.204;24.686;2023-04-03T04:38:29;98782.84;;;9.93;79.51
7668;BME280;3876;42.204;24.686;2023-04-03T04:40:57;98788.56;;;9.99;80.14
7668;BME280;3876;42.204;24.686;2023-04-03T04:43:23;98787.19;;;10.14;80.77
7668;BME280;3876;42.204;24.686;2023-04-03T04:46:00;98785.84;;;10.27;79.83
7668;BME280;3876;42.204;24.686;2023-04-03T04:48:27;98787.97;;;10.38;79.74
7668;BME280;3876;42.204;24.686;2023-04-03T04:50:54;98788.25;;;10.52;79.07
7668;BME280;3876;42.204;24.686;2023-04-03T04:53:23;98787.88;;;10.61;78.24
7668;BME280;3876;42.204;24.686;2023-04-03T04:55:50;98784.13;;;10.70;77.15
7668;BME280;3876;42.204;24.686;2023-04-03T04:58:18;98788.22;;;10.74;76.30
7668;BME280;3876;42.204;24.686;2023-04-03T05:00:45;98796.81;;;10.73;76.18
7668;BME280;3876;42.204;24.686;2023-04-03T05:03:12;98803.47;;;10.77;76.63
7668;BME280;3876;42.204;24.686;2023-04-03T05:05:39;98805.53;;;10.69;76.37
7668;BME280;3876;42.204;24.686;2023-04-03T05:08:06;98800.19;;;10.53;77.04
7668;BME280;3876;42.204;24.686;2023-04-03T05:10:34;98805.53;;;10.25;78.95
7668;BME280;3876;42.204;24.686;2023-04-03T05:13:01;98811.56;;;10.01;80.23
7668;BME280;3876;42.204;24.686;2023-04-03T05:15:29;98801.63;;;9.92;80.77
7668;BME280;3876;42.204;24.686;2023-04-03T05:17:56;98813.56;;;9.93;82.15
7668;BME280;3876;42.204;24.686;2023-04-03T05:20:22;98821.19;;;9.94;82.06
7668;BME280;3876;42.204;24.686;2023-04-03T05:22:49;98826.31;;;9.94;82.21
7668;BME280;3876;42.204;24.686;2023-04-03T05:25:16;98837.16;;;10.01;81.75
7668;BME280;3876;42.204;24.686;2023-04-03T05:27:43;98809.00;;;10.01;81.37
7668;BME280;3876;42.204;24.686;2023-04-03T05:30:10;98833.94;;;10.19;80.66
7668;BME280;3876;42.204;24.686;2023-04-03T05:32:39;98834.50;;;10.27;81.33
7668;BME280;3876;42.204;24.686;2023-04-03T05:35:06;98814.81;;;10.28;80.33
7668;BME280;3876;42.204;24.686;2023-04-03T05:37:34;98823.41;;;10.48;80.30
7668;BME280;3876;42.204;24.686;2023-04-03T05:40:01;98821.38;;;10.57;80.31
7668;BME280;3876;42.204;24.686;2023-04-03T05:42:28;98838.97;;;10.66;80.21
7668;BME280;3876;42.204;24.686;2023-04-03T05:44:55;98834.50;;;10.71;79.85
7668;BME280;3876;42.204;24.686;2023-04-03T05:47:22;98828.06;;;10.82;79.76
7668;BME280;3876;42.204;24.686;2023-04-03T05:49:50;98841.69;;;10.83;79.23
7668;BME280;3876;42.204;24.686;2023-04-03T05:52:21;98834.53;;;10.91;79.00
7668;BME280;3876;42.204;24.686;2023-04-03T05:54:49;98831.72;;;10.97;78.68
7668;BME280;3876;42.204;24.686;2023-04-03T05:57:16;98834.91;;;11.02;78.09
7668;BME280;3876;42.204;24.686;2023-04-03T05:59:43;98837.00;;;11.14;79.90
7668;BME280;3876;42.204;24.686;2023-04-03T06:02:11;98841.78;;;11.22;78.23
7668;BME280;3876;42.204;24.686;2023-04-03T06:04:38;98852.38;;;11.34;77.85
7668;BME280;3876;42.204;24.686;2023-04-03T06:07:10;98841.09;;;11.38;77.72
7668;BME280;3876;42.204;24.686;2023-04-03T06:09:38;98856.09;;;11.47;76.74
7668;BME280;3876;42.204;24.686;2023-04-03T06:12:05;98842.56;;;11.44;75.68
7668;BME280;3876;42.204;24.686;2023-04-03T06:14:32;98845.91;;;11.46;75.25
7668;BME280;3876;42.204;24.686;2023-04-03T06:16:58;98845.84;;;11.47;76.30
7668;BME280;3876;42.204;24.686;2023-04-03T06:19:27;98848.91;;;11.55;75.90
7668;BME280;3876;42.204;24.686;2023-04-03T06:21:54;98855.59;;;11.59;75.80
7668;BME280;3876;42.204;24.686;2023-04-03T06:24:22;98855.47;;;11.42;74.06
7668;BME280;3876;42.204;24.686;2023-04-03T06:26:51;98839.31;;;11.20;73.96
7668;BME280;3876;42.204;24.686;2023-04-03T06:29:18;98845.59;;;11.33;75.62
7668;BME280;3876;42.204;24.686;2023-04-03T06:31:45;98835.84;;;11.41;76.01
7668;BME280;3876;42.204;24.686;2023-04-03T06:34:12;98842.09;;;11.54;77.77
7668;BME280;3876;42.204;24.686;2023-04-03T06:36:39;98838.53;;;11.58;76.40
7668;BME280;3876;42.204;24.686;2023-04-03T06:39:06;98831.16;;;11.71;76.19
7668;BME280;3876;42.204;24.686;2023-04-03T06:41:35;98840.69;;;11.68;76.05
7668;BME280;3876;42.204;24.686;2023-04-03T06:44:01;98843.72;;;11.77;73.57
7668;BME280;3876;42.204;24.686;2023-04-03T06:46:28;98854.22;;;11.73;74.02
7668;BME280;3876;42.204;24.686;2023-04-03T06:48:55;98861.06;;;11.72;74.25
7668;BME280;3876;42.204;24.686;2023-04-03T06:51:25;98864.06;;;11.82;74.48
7668;BME280;3876;42.204;24.686;2023-04-03T06:53:53;98863.66;;;11.91;73.47
7668;BME280;3876;42.204;24.686;2023-04-03T06:56:20;98836.56;;;11.84;74.06
7668;BME280;3876;42.204;24.686;2023-04-03T06:58:49;98852.13;;;11.99;74.01
7668;BME280;3876;42.204;24.686;2023-04-03T07:01:17;98861.31;;;12.05;72.68
7668;BME280;3876;42.204;24.686;2023-04-03T07:03:45;98854.56;;;12.02;72.79
7668;BME280;3876;42.204;24.686;2023-04-03T07:06:14;98865.91;;;12.17;73.24
7668;BME280;3876;42.204;24.686;2023-04-03T07:08:42;98864.66;;;12.26;73.57
7668;BME280;3876;42.204;24.686;2023-04-03T07:11:09;98871.75;;;12.39;74.54
7668;BME280;3876;42.204;24.686;2023-04-03T07:13:36;98869.09;;;12.59;73.44
7668;BME280;3876;42.204;24.686;2023-04-03T07:16:06;98861.69;;;12.71;72.96
7668;BME280;3876;42.204;24.686;2023-04-03T07:18:34;98863.91;;;12.78;71.95
7668;BME280;3876;42.204;24.686;2023-04-03T07:21:01;98868.53;;;12.89;71.32
7668;BME280;3876;42.204;24.686;2023-04-03T07:23:28;98869.09;;;12.95;69.90
7668;BME280;3876;42.204;24.686;2023-04-03T07:25:55;98859.19;;;13.05;69.49
7668;BME280;3876;42.204;24.686;2023-04-03T07:28:22;98860.34;;;13.17;71.43
7668;BME280;3876;42.204;24.686;2023-04-03T07:30:51;98837.34;;;13.13;70.42
7668;BME280;3876;42.204;24.686;2023-04-03T07:33:23;98858.88;;;13.28;69.68
7668;BME280;3876;42.204;24.686;2023-04-03T07:35:50;98857.09;;;13.30;70.04
7668;BME280;3876;42.204;24.686;2023-04-03T07:38:18;98856.63;;;13.39;69.77
7668;BME280;3876;42.204;24.686;2023-04-03T07:40:46;98828.63;;;13.33;69.46
7668;BME280;3876;42.204;24.686;2023-04-03T07:43:17;98844.34;;;13.44;68.41
7668;BME280;3876;42.204;24.686;2023-04-03T07:45:44;98836.63;;;13.44;67.78
7668;BME280;3876;42.204;24.686;2023-04-03T07:48:13;98844.59;;;13.57;67.56
7668;BME280;3876;42.204;24.686;2023-04-03T07:50:42;98842.00;;;13.57;67.00
7668;BME280;3876;42.204;24.686;2023-04-03T07:53:10;98844.78;;;13.70;67.09
7668;BME280;3876;42.204;24.686;2023-04-03T07:55:37;98845.50;;;13.89;67.61
7668;BME280;3876;42.204;24.686;2023-04-03T07:58:08;98838.94;;;13.99;65.50
7668;BME280;3876;42.204;24.686;2023-04-03T08:00:36;98841.75;;;14.10;66.00
7668;BME280;3876;42.204;24.686;2023-04-03T08:03:03;98834.19;;;14.23;68.05
7668;BME280;3876;42.204;24.686;2023-04-03T08:05:30;98836.06;;;14.36;66.27
7668;BME280;3876;42.204;24.686;2023-04-03T08:07:58;98832.09;;;14.46;65.44
7668;BME280;3876;42.204;24.686;2023-04-03T08:10:25;98830.56;;;14.58;64.38
7668;BME280;3876;42.204;24.686;2023-04-03T08:12:52;98824.41;;;14.60;63.58
7668;BME280;3876;42.204;24.686;2023-04-03T08:15:19;98824.88;;;14.67;64.37
7668;BME280;3876;42.204;24.686;2023-04-03T08:17:45;98832.22;;;14.75;63.19
7668;BME280;3876;42.204;24.686;2023-04-03T08:20:12;98818.56;;;14.73;62.34
7668;BME280;3876;42.204;24.686;2023-04-03T08:22:39;98818.75;;;14.69;61.09
7668;BME280;3876;42.204;24.686;2023-04-03T08:25:08;98821.41;;;14.68;61.29
7668;BME280;3876;42.204;24.686;2023-04-03T08:27:35;98820.63;;;14.82;60.89
7668;BME280;3876;42.204;24.686;2023-04-03T08:30:03;98818.19;;;14.94;60.05
7668;BME280;3876;42.204;24.686;2023-04-03T08:32:30;98817.16;;;14.97;59.92
7668;BME280;3876;42.204;24.686;2023-04-03T08:34:56;98812.19;;;14.94;61.80
7668;BME280;3876;42.204;24.686;2023-04-03T08:37:23;98812.66;;;15.00;61.73
7668;BME280;3876;42.204;24.686;2023-04-03T08:39:50;98804.84;;;15.02;61.18
7668;BME280;3876;42.204;24.686;2023-04-03T08:42:36;98799.16;;;15.11;61.67
7668;BME280;3876;42.204;24.686;2023-04-03T08:45:09;98796.38;;;15.14;60.79
7668;BME280;3876;42.204;24.686;2023-04-03T08:47:39;98783.13;;;15.20;60.70
7668;BME280;3876;42.204;24.686;2023-04-03T08:50:11;98780.47;;;15.21;59.72
7668;BME280;3876;42.204;24.686;2023-04-03T08:52:41;98779.53;;;15.22;60.31
7668;BME280;3876;42.204;24.686;2023-04-03T08:55:19;98778.50;;;15.11;59.35
7668;BME280;3876;42.204;24.686;2023-04-03T08:57:53;98769.56;;;15.02;59.67
7668;BME280;3876;42.204;24.686;2023-04-03T09:00:25;98781.09;;;15.11;59.15
7668;BME280;3876;42.204;24.686;2023-04-03T09:02:55;98780.78;;;15.15;60.44
7668;BME280;3876;42.204;24.686;2023-04-03T09:05:32;98779.63;;;15.21;59.15
7668;BME280;3876;42.204;24.686;2023-04-03T09:08:06;98780.75;;;15.31;59.76
7668;BME280;3876;42.204;24.686;2023-04-03T09:10:37;98778.34;;;15.42;59.65
7668;BME280;3876;42.204;24.686;2023-04-03T09:13:13;98786.84;;;15.44;59.79
7668;BME280;3876;42.204;24.686;2023-04-03T09:15:48;98764.69;;;15.12;58.81
7668;BME280;3876;42.204;24.686;2023-04-03T09:18:17;98782.38;;;15.18;59.64
7668;BME280;3876;42.204;24.686;2023-04-03T09:20:52;98780.00;;;15.15;58.90
7668;BME280;3876;42.204;24.686;2023-04-03T09:23:26;98781.81;;;15.13;59.52
7668;BME280;3876;42.204;24.686;2023-04-03T09:26:00;98774.16;;;15.11;60.02
7668;BME280;3876;42.204;24.686;2023-04-03T09:28:32;98765.00;;;15.06;60.67
7668;BME280;3876;42.204;24.686;2023-04-03T09:31:00;98769.13;;;15.24;59.93
7668;BME280;3876;42.204;24.686;2023-04-03T09:33:29;98768.00;;;15.14;60.69
7668;BME280;3876;42.204;24.686;2023-04-03T09:35:57;98773.63;;;15.20;61.95
7668;BME280;3876;42.204;24.686;2023-04-03T09:38:23;98767.63;;;15.20;61.28
7668;BME280;3876;42.204;24.686;2023-04-03T09:41:04;98764.13;;;15.21;60.69
7668;BME280;3876;42.204;24.686;2023-04-03T09:43:33;98761.91;;;15.15;60.94
7668;BME280;3876;42.204;24.686;2023-04-03T09:46:25;98759.66;;;15.09;61.09
7668;BME280;3876;42.204;24.686;2023-04-03T09:48:57;98752.22;;;15.04;61.20
7668;BME280;3876;42.204;24.686;2023-04-03T09:51:25;98740.69;;;14.96;62.64
7668;BME280;3876;42.204;24.686;2023-04-03T09:53:54;98745.91;;;14.94;63.59
7668;BME280;3876;42.204;24.686;2023-04-03T09:56:24;98735.97;;;14.88;65.33
7668;BME280;3876;42.204;24.686;2023-04-03T09:59:08;98735.13;;;14.88;66.28
7668;BME280;3876;42.204;24.686;2023-04-03T10:01:42;98740.28;;;14.88;66.90
7668;BME280;3876;42.204;24.686;2023-04-03T10:04:11;98751.63;;;14.85;68.36
7668;BME280;3876;42.204;24.686;2023-04-03T10:06:39;98753.44;;;14.83;69.22
7668;BME280;3876;42.204;24.686;2023-04-03T10:09:18;98744.31;;;14.78;69.72
7668;BME280;3876;42.204;24.686;2023-04-03T10:12:00;98739.84;;;14.65;70.71
7668;BME280;3876;42.204;24.686;2023-04-03T10:14:32;98740.41;;;14.70;71.98
7668;BME280;3876;42.204;24.686;2023-04-03T10:17:09;98741.53;;;14.66;71.52
7668;BME280;3876;42.204;24.686;2023-04-03T10:19:42;98733.03;;;14.64;71.71
7668;BME280;3876;42.204;24.686;2023-04-03T10:22:16;98736.56;;;14.63;71.15
7668;BME280;3876;42.204;24.686;2023-04-03T10:24:54;98738.38;;;14.61;72.07
7668;BME280;3876;42.204;24.686;2023-04-03T10:27:32;98739.63;;;14.54;70.55
7668;BME280;3876;42.204;24.686;2023-04-03T10:30:16;98732.75;;;14.39;69.97
7668;BME280;3876;42.204;24.686;2023-04-03T10:32:54;98738.41;;;14.30;70.42
7668;BME280;3876;42.204;24.686;2023-04-03T10:35:35;98741.34;;;14.24;69.72
7668;BME280;3876;42.204;24.686;2023-04-03T10:38:09;98723.13;;;14.11;73.13
7668;BME280;3876;42.204;24.686;2023-04-03T10:40:45;98751.03;;;14.19;73.03
7668;BME280;3876;42.204;24.686;2023-04-03T10:43:18;98748.41;;;14.20;74.17
7668;BME280;3876;42.204;24.686;2023-04-03T10:45:55;98753.38;;;14.24;75.01
7668;BME280;3876;42.204;24.686;2023-04-03T10:48:44;98746.31;;;14.27;76.86
7668;BME280;3876;42.204;24.686;2023-04-03T10:51:23;98754.72;;;14.31;78.52
7668;BME280;3876;42.204;24.686;2023-04-03T10:53:56;98757.06;;;14.35;79.48
7668;BME280;3876;42.204;24.686;2023-04-03T10:56:31;98756.31;;;14.33;79.35
7668;BME280;3876;42.204;24.686;2023-04-03T10:59:08;98764.38;;;14.27;79.41
7668;BME280;3876;42.204;24.686;2023-04-03T11:01:43;98761.94;;;14.24;80.77
7668;BME280;3876;42.204;24.686;2023-04-03T11:04:12;98754.22;;;14.24;81.87
7668;BME280;3876;42.204;24.686;2023-04-03T11:06:45;98760.69;;;14.15;80.30
7668;BME280;3876;42.204;24.686;2023-04-03T11:09:19;98758.56;;;14.08;82.58
7668;BME280;3876;42.204;24.686;2023-04-03T11:11:49;98766.34;;;13.91;84.23
7668;BME280;3876;42.204;24.686;2023-04-03T11:14:24;98764.03;;;14.02;85.69
7668;BME280;3876;42.204;24.686;2023-04-03T11:17:04;98761.03;;;14.09;87.33
7668;BME280;3876;42.204;24.686;2023-04-03T11:19:35;98762.19;;;14.19;90.48
7668;BME280;3876;42.204;24.686;2023-04-03T11:22:10;98765.59;;;14.20;89.62
7668;BME280;3876;42.204;24.686;2023-04-03T11:24:42;98762.59;;;14.12;89.54
7668;BME280;3876;42.204;24.686;2023-04-03T11:27:15;98758.44;;;14.09;89.93
7668;BME280;3876;42.204;24.686;2023-04-03T11:29:45;98760.03;;;14.12;91.29
7668;BME280;3876;42.204;24.686;2023-04-03T11:32:41;98733.69;;;14.07;92.33
7668;BME280;3876;42.204;24.686;2023-04-03T11:35:12;98745.53;;;14.25;93.79
7668;BME280;3876;42.204;24.686;2023-04-03T11:37:40;98746.31;;;14.27;94.11
7668;BME280;3876;42.204;24.686;2023-04-03T11:40:22;98743.66;;;14.13;92.99
7668;BME280;3876;42.204;24.686;2023-04-03T11:42:55;98743.25;;;13.89;93.87
7668;BME280;3876;42.204;24.686;2023-04-03T11:45:35;98742.25;;;13.92;96.30
7668;BME280;3876;42.204;24.686;2023-04-03T11:48:06;98736.44;;;14.04;96.76
7668;BME280;3876;42.204;24.686;2023-04-03T11:50:52;98741.75;;;14.01;97.36
7668;BME280;3876;42.204;24.686;2023-04-03T11:53:33;98738.09;;;14.05;97.73
7668;BME280;3876;42.204;24.686;2023-04-03T11:56:28;98735.59;;;13.88;96.94
7668;BME280;3876;42.204;24.686;2023-04-03T11:59:25;98730.09;;;13.94;97.81
7668;BME280;3876;42.204;24.686;2023-04-03T12:01:56;98725.56;;;13.99;98.62
7668;BME280;3876;42.204;24.686;2023-04-03T12:04:26;98721.13;;;14.01;98.47
7668;BME280;3876;42.204;24.686;2023-04-03T12:10:00;98719.97;;;13.91;100.00
7668;BME280;3876;42.204;24.686;2023-04-03T12:12:34;98716.84;;;13.86;100.00
7668;BME280;3876;42.204;24.686;2023-04-03T12:18:41;98715.50;;;13.63;100.00
7668;BME280;3876;42.204;24.686;2023-04-03T12:21:11;98717.91;;;13.66;100.00
7668;BME280;3876;42.204;24.686;2023-04-03T12:24:00;98705.75;;;13.52;100.00
7668;BME280;3876;42.204;24.686;2023-04-03T12:26:31;98696.34;;;13.51;100.00
7668;BME280;3876;42.204;24.686;2023-04-03T12:29:02;98698.34;;;13.46;100.00
7668;BME280;3876;42.204;24.686;2023-04-03T12:31:48;98690.03;;;13.41;100.00
7668;BME280;3876;42.204;24.686;2023-04-03T12:34:41;98689.50;;;13.35;100.00
7668;BME280;3876;42.204;24.686;2023-04-03T12:37:29;98694.16;;;13.28;100.00
7668;BME280;3876;42.204;24.686;2023-04-03T12:40:08;98682.22;;;13.27;100.00
7668;BME280;3876;42.204;24.686;2023-04-03T12:42:53;98682.28;;;13.26;100.00
7668;BME280;3876;42.204;24.686;2023-04-03T12:45:25;98679.34;;;13.16;100.00
7668;BME280;3876;42.204;24.686;2023-04-03T12:47:54;98675.44;;;13.09;100.00
7668;BME280;3876;42.204;24.686;2023-04-03T12:50:24;98682.19;;;13.11;100.00
7668;BME280;3876;42.204;24.686;2023-04-03T12:53:04;98651.72;;;13.02;100.00
7668;BME280;3876;42.204;24.686;2023-04-03T12:55:31;98681.34;;;13.11;100.00
7668;BME280;3876;42.204;24.686;2023-04-03T12:58:13;98674.53;;;13.10;100.00
7668;BME280;3876;42.204;24.686;2023-04-03T13:00:40;98677.19;;;13.08;100.00
7668;BME280;3876;42.204;24.686;2023-04-03T13:03:20;98674.22;;;12.99;100.00
7668;BME280;3876;42.204;24.686;2023-04-03T13:05:51;98674.16;;;13.00;100.00
7668;BME280;3876;42.204;24.686;2023-04-03T13:08:19;98665.59;;;13.00;100.00
7668;BME280;3876;42.204;24.686;2023-04-03T13:10:52;98673.47;;;12.97;100.00
7668;BME280;3876;42.204;24.686;2023-04-03T13:13:20;98667.97;;;12.87;100.00
7668;BME280;3876;42.204;24.686;2023-04-03T13:15:49;98658.16;;;12.78;100.00
7668;BME280;3876;42.204;24.686;2023-04-03T13:18:26;98652.63;;;12.69;100.00
7668;BME280;3876;42.204;24.686;2023-04-03T13:20:55;98649.00;;;12.73;100.00
7668;BME280;3876;42.204;24.686;2023-04-03T13:23:24;98645.09;;;12.66;100.00
7668;BME280;3876;42.204;24.686;2023-04-03T13:25:51;98643.66;;;12.60;100.00
7668;BME280;3876;42.204;24.686;2023-04-03T13:28:20;98640.00;;;12.64;100.00
7668;BME280;3876;42.204;24.686;2023-04-03T13:30:57;98640.69;;;12.68;100.00